createdAt,value
2023-01-29T00:02:09.766Z,42.63
2023-01-29T00:04:37.144Z,43.75
2023-01-29T00:07:04.506Z,43.95
2023-01-29T00:09:32.192Z,43.17
2023-01-29T00:14:27.453Z,38.75
2023-01-29T00:16:56.199Z,43.60
2023-01-29T00:19:23.572Z,43.63
2023-01-29T00:21:50.940Z,45.15
2023-01-29T00:24:18.386Z,45.83
2023-01-29T00:26:46.331Z,45.00
2023-01-29T00:29:13.877Z,45.25
2023-01-29T00:31:41.383Z,43.60
2023-01-29T00:36:37.573Z,43.05
2023-01-29T00:39:10.490Z,44.42
2023-01-29T00:41:58.013Z,45.90
2023-01-29T00:44:51.776Z,42.08
2023-01-29T00:47:33.836Z,42.38
2023-01-29T00:50:01.860Z,46.47
2023-01-29T00:52:30.800Z,43.20
2023-01-29T00:54:59.114Z,44.03
2023-01-29T00:57:31.243Z,41.80
2023-01-29T01:00:00.353Z,44.85
2023-01-29T01:02:45.681Z,45.38
2023-01-29T01:05:18.274Z,42.20
2023-01-29T01:07:48.097Z,43.33
2023-01-29T01:10:24.758Z,42.95
2023-01-29T01:12:54.410Z,32.30
2023-01-29T01:15:21.973Z,45.72
2023-01-29T01:17:52.563Z,42.25
2023-01-29T01:20:20.250Z,43.50
2023-01-29T01:22:49.815Z,43.38
2023-01-29T01:25:20.264Z,43.83
2023-01-29T01:30:26.136Z,43.03
2023-01-29T01:32:54.092Z,42.97
2023-01-29T01:35:21.551Z,45.75
2023-01-29T01:37:51.046Z,41.53
2023-01-29T01:40:24.143Z,43.45
2023-01-29T01:42:52.311Z,44.17
2023-01-29T01:45:21.491Z,45.05
2023-01-29T01:47:50.237Z,42.50
2023-01-29T01:50:28.674Z,43.53
2023-01-29T01:53:00.665Z,44.60
2023-01-29T01:55:29.270Z,42.72
2023-01-29T01:58:01.414Z,44.25
2023-01-29T02:00:29.199Z,43.50
2023-01-29T02:03:16.307Z,44.85
2023-01-29T02:06:06.609Z,41.53
2023-01-29T02:11:26.296Z,40.28
2023-01-29T02:13:54.492Z,44.17
2023-01-29T02:16:26.470Z,42.67
2023-01-29T02:18:56.332Z,44.45
2023-01-29T02:24:26.293Z,44.10
2023-01-29T02:27:15.447Z,41.63
2023-01-29T02:29:54.074Z,46.28
2023-01-29T02:32:23.789Z,46.28
2023-01-29T02:35:19.114Z,45.47
2023-01-29T02:37:49.589Z,41.67
2023-01-29T02:40:24.068Z,42.45
2023-01-29T02:42:56.480Z,44.17
2023-01-29T02:45:30.453Z,43.28
2023-01-29T02:47:59.491Z,46.50
2023-01-29T02:50:29.300Z,44.45
2023-01-29T02:53:15.278Z,45.05
2023-01-29T02:55:45.786Z,45.42
2023-01-29T02:58:14.991Z,45.28
2023-01-29T03:00:45.449Z,48.47
2023-01-29T03:03:17.509Z,47.92
2023-01-29T03:05:58.066Z,49.83
2023-01-29T03:08:37.065Z,48.60
2023-01-29T03:11:05.537Z,50.20
2023-01-29T03:13:36.323Z,46.58
2023-01-29T03:16:09.931Z,50.03
2023-01-29T03:18:50.678Z,50.65
2023-01-29T03:21:37.757Z,48.22
2023-01-29T03:24:25.009Z,47.40
2023-01-29T03:27:10.998Z,47.22
2023-01-29T03:30:03.934Z,48.03
2023-01-29T03:32:53.244Z,46.20
2023-01-29T03:35:35.973Z,46.90
2023-01-29T03:38:09.908Z,44.42
2023-01-29T03:40:42.467Z,46.38
2023-01-29T03:43:14.841Z,48.88
2023-01-29T03:45:47.596Z,46.67
2023-01-29T03:48:23.010Z,47.83
2023-01-29T03:50:55.820Z,46.03
2023-01-29T03:53:29.417Z,45.67
2023-01-29T03:56:01.987Z,46.42
2023-01-29T03:58:35.731Z,48.17
2023-01-29T04:01:10.025Z,50.92
2023-01-29T04:03:42.501Z,45.97
2023-01-29T04:06:15.016Z,48.00
2023-01-29T04:08:54.732Z,47.25
2023-01-29T04:11:23.097Z,46.15
2023-01-29T04:13:50.969Z,46.38
2023-01-29T04:16:23.007Z,48.50
2023-01-29T04:19:13.457Z,47.58
2023-01-29T04:21:43.100Z,48.17
2023-01-29T04:24:12.221Z,48.63
2023-01-29T04:26:52.101Z,46.55
2023-01-29T04:29:28.421Z,50.95
2023-01-29T04:32:02.928Z,47.47
2023-01-29T04:34:37.042Z,47.28
2023-01-29T04:37:12.877Z,48.13
2023-01-29T04:39:46.156Z,48.40
2023-01-29T04:42:15.297Z,48.78
2023-01-29T04:44:46.588Z,48.85
2023-01-29T04:47:27.695Z,48.35
2023-01-29T04:50:00.044Z,48.08
2023-01-29T04:52:32.724Z,49.30
2023-01-29T04:55:03.662Z,47.88
2023-01-29T04:57:46.212Z,48.85
2023-01-29T05:00:17.586Z,47.60
2023-01-29T05:02:45.938Z,47.60
2023-01-29T05:05:15.748Z,47.85
2023-01-29T05:07:44.290Z,47.45
2023-01-29T05:10:15.952Z,48.15
2023-01-29T05:12:44.577Z,46.80
2023-01-29T05:15:13.781Z,44.55
2023-01-29T05:17:44.426Z,44.08
2023-01-29T05:20:12.657Z,43.85
2023-01-29T05:22:43.148Z,44.78
2023-01-29T05:25:22.045Z,42.55
2023-01-29T05:28:04.603Z,41.35
2023-01-29T05:30:32.931Z,40.40
2023-01-29T05:33:03.237Z,41.03
2023-01-29T05:35:30.861Z,40.22
2023-01-29T05:37:59.668Z,39.10
2023-01-29T05:40:27.134Z,40.05
2023-01-29T05:42:55.245Z,41.42
2023-01-29T05:45:22.852Z,40.90
2023-01-29T05:47:50.635Z,40.38
2023-01-29T05:52:47.792Z,40.20
2023-01-29T05:57:46.045Z,37.08
2023-01-29T06:00:14.609Z,37.53
2023-01-29T06:02:42.204Z,38.28
2023-01-29T06:05:12.363Z,35.92
2023-01-29T06:07:45.045Z,35.05
2023-01-29T06:10:12.865Z,36.35
2023-01-29T06:15:12.182Z,35.15
2023-01-29T06:17:42.541Z,36.20
2023-01-29T06:20:10.932Z,33.03
2023-01-29T06:22:40.532Z,33.42
2023-01-29T06:25:14.212Z,35.20
2023-01-29T06:27:48.360Z,37.13
2023-01-29T06:30:18.004Z,36.28
2023-01-29T06:32:53.169Z,35.30
2023-01-29T06:35:20.851Z,35.55
2023-01-29T06:40:19.636Z,35.03
2023-01-29T06:42:48.115Z,34.75
2023-01-29T06:45:17.159Z,36.10
2023-01-29T06:47:45.740Z,35.80
2023-01-29T06:50:17.315Z,34.53
2023-01-29T06:52:44.821Z,35.03
2023-01-29T06:55:15.694Z,33.95
2023-01-29T06:57:43.103Z,35.55
2023-01-29T07:00:15.412Z,37.05
2023-01-29T07:02:49.765Z,35.78
2023-01-29T07:05:17.544Z,34.35
2023-01-29T07:10:14.180Z,32.40
2023-01-29T07:12:42.277Z,34.97
2023-01-29T07:15:12.497Z,33.47
2023-01-29T07:17:40.237Z,35.25
2023-01-29T07:20:11.211Z,34.03
2023-01-29T07:22:38.717Z,34.83
2023-01-29T07:25:06.974Z,32.60
2023-01-29T07:27:34.628Z,34.28
2023-01-29T07:30:02.310Z,34.25
2023-01-29T07:32:29.691Z,33.65
2023-01-29T07:34:59.259Z,35.42
2023-01-29T07:37:31.544Z,32.63
2023-01-29T07:39:59.117Z,35.63
2023-01-29T07:42:26.519Z,36.85
2023-01-29T07:44:53.919Z,34.03
2023-01-29T07:47:36.192Z,35.80
2023-01-29T07:50:03.977Z,37.05
2023-01-29T07:55:00.799Z,33.00
2023-01-29T07:57:28.160Z,35.58
2023-01-29T07:59:55.807Z,37.30
2023-01-29T08:04:51.085Z,37.03
2023-01-29T08:09:56.453Z,35.50
2023-01-29T08:12:25.403Z,34.47
2023-01-29T08:14:55.416Z,35.03
2023-01-29T08:17:22.780Z,36.55
2023-01-29T08:19:50.134Z,36.88
2023-01-29T08:22:17.577Z,39.08
2023-01-29T08:24:53.881Z,36.70
2023-01-29T08:27:36.386Z,37.92
2023-01-29T08:30:08.950Z,37.40
2023-01-29T08:32:36.812Z,37.30
2023-01-29T08:35:05.124Z,37.25
2023-01-29T08:37:32.931Z,36.67
2023-01-29T08:40:00.657Z,37.70
2023-01-29T08:44:56.881Z,37.30
2023-01-29T08:47:24.484Z,37.08
2023-01-29T08:49:51.881Z,37.75
2023-01-29T08:52:19.276Z,36.47
2023-01-29T08:54:47.035Z,37.00
2023-01-29T08:57:14.702Z,37.50
2023-01-29T08:59:47.463Z,35.25
2023-01-29T09:02:17.474Z,38.65
2023-01-29T09:04:44.987Z,37.53
2023-01-29T09:07:12.454Z,37.97
2023-01-29T09:09:39.901Z,37.22
2023-01-29T09:12:07.716Z,36.33
2023-01-29T09:14:36.937Z,38.35
2023-01-29T09:17:04.349Z,37.03
2023-01-29T09:19:33.336Z,38.45
2023-01-29T09:22:00.922Z,35.88
2023-01-29T09:24:32.573Z,36.40
2023-01-29T09:27:00.091Z,35.30
2023-01-29T09:29:27.448Z,39.05
2023-01-29T09:31:55.085Z,37.72
2023-01-29T09:34:22.521Z,37.10
2023-01-29T09:36:54.516Z,35.03
2023-01-29T09:39:22.117Z,37.58
2023-01-29T09:41:55.813Z,35.45
2023-01-29T09:44:28.508Z,36.35
2023-01-29T09:46:56.417Z,34.30
2023-01-29T09:49:25.882Z,36.47
2023-01-29T09:51:56.765Z,37.92
2023-01-29T09:54:25.455Z,37.38
2023-01-29T09:56:55.951Z,36.47
2023-01-29T09:59:23.959Z,36.08
2023-01-29T10:01:56.617Z,37.80
2023-01-29T10:04:32.156Z,37.13
2023-01-29T10:07:09.117Z,36.42
2023-01-29T10:09:55.394Z,37.10
2023-01-29T10:12:34.429Z,36.22
2023-01-29T10:15:08.562Z,36.13
2023-01-29T10:17:49.549Z,36.10
2023-01-29T10:20:28.860Z,33.45
2023-01-29T10:23:08.371Z,33.03
2023-01-29T10:25:37.709Z,35.42
2023-01-29T10:28:15.777Z,35.72
2023-01-29T10:30:49.597Z,34.42
2023-01-29T10:33:23.528Z,33.17
2023-01-29T10:35:55.318Z,34.92
2023-01-29T10:38:30.120Z,35.47
2023-01-29T10:41:02.489Z,33.33
2023-01-29T10:43:37.997Z,33.58
2023-01-29T10:46:10.660Z,34.85
2023-01-29T10:48:57.365Z,32.75
2023-01-29T10:51:33.457Z,33.75
2023-01-29T10:54:09.857Z,35.10
2023-01-29T10:56:52.965Z,31.77
2023-01-29T10:59:28.164Z,33.30
2023-01-29T11:02:03.527Z,34.97
2023-01-29T11:04:32.443Z,35.78
2023-01-29T11:07:00.419Z,35.28
2023-01-29T11:12:03.157Z,30.70
2023-01-29T11:14:34.707Z,34.03
2023-01-29T11:17:02.145Z,30.73
2023-01-29T11:19:38.496Z,33.38
2023-01-29T11:22:09.203Z,34.03
2023-01-29T11:24:36.796Z,33.55
2023-01-29T11:27:14.708Z,35.00
2023-01-29T11:29:44.939Z,33.92
2023-01-29T11:32:29.527Z,26.75
2023-01-29T11:34:57.836Z,34.63
2023-01-29T11:37:32.350Z,35.80
2023-01-29T11:40:02.848Z,32.88
2023-01-29T11:42:35.747Z,33.45
2023-01-29T11:45:03.281Z,34.53
2023-01-29T11:47:31.401Z,33.88
2023-01-29T11:50:02.208Z,32.53
2023-01-29T11:52:36.051Z,32.83
2023-01-29T11:55:05.476Z,33.38
2023-01-29T11:57:47.837Z,32.75
2023-01-29T12:00:20.505Z,32.95
2023-01-29T12:02:52.319Z,33.00
2023-01-29T12:05:22.598Z,34.63
2023-01-29T12:07:52.322Z,32.28
2023-01-29T12:10:35.715Z,32.65
2023-01-29T12:13:07.172Z,33.30
2023-01-29T12:15:34.721Z,30.40
2023-01-29T12:18:06.817Z,31.90
2023-01-29T12:20:38.868Z,30.92
2023-01-29T12:23:12.355Z,31.88
2023-01-29T12:25:42.739Z,33.10
2023-01-29T12:28:20.252Z,30.75
2023-01-29T12:30:53.317Z,30.02
2023-01-29T12:33:31.634Z,31.33
2023-01-29T12:36:06.155Z,31.83
2023-01-29T12:38:37.121Z,31.15
2023-01-29T12:41:07.731Z,24.00
2023-01-29T12:43:39.854Z,29.38
2023-01-29T12:46:11.373Z,30.20
2023-01-29T12:48:43.654Z,30.40
2023-01-29T12:51:15.605Z,27.33
2023-01-29T12:53:45.937Z,30.10
2023-01-29T12:56:15.987Z,29.33
2023-01-29T12:58:50.760Z,30.17
2023-01-29T13:01:23.318Z,30.15
2023-01-29T13:03:54.574Z,31.50
2023-01-29T13:06:26.191Z,28.67
2023-01-29T13:08:55.441Z,29.38
2023-01-29T13:11:25.368Z,28.60
2023-01-29T13:13:57.699Z,28.67
2023-01-29T13:16:27.953Z,27.23
2023-01-29T13:18:58.026Z,25.98
2023-01-29T13:21:31.917Z,28.98
2023-01-29T13:24:01.707Z,27.65
2023-01-29T13:26:30.795Z,27.75
2023-01-29T13:28:58.808Z,28.58
2023-01-29T13:31:36.797Z,28.33
2023-01-29T13:34:08.852Z,28.05
2023-01-29T13:36:43.162Z,29.10
2023-01-29T13:39:25.386Z,27.83
2023-01-29T13:41:53.522Z,27.08
2023-01-29T13:44:22.623Z,29.20
2023-01-29T13:46:53.180Z,29.67
2023-01-29T13:49:29.471Z,27.13
2023-01-29T13:51:57.849Z,27.23
2023-01-29T13:54:28.785Z,28.10
2023-01-29T13:57:01.094Z,28.13
2023-01-29T13:59:47.220Z,27.65
2023-01-29T14:02:24.150Z,29.63
2023-01-29T14:04:54.406Z,26.75
2023-01-29T14:07:52.784Z,24.80
2023-01-29T14:10:21.567Z,25.75
2023-01-29T14:12:52.757Z,22.55
2023-01-29T14:15:22.191Z,22.83
2023-01-29T14:18:03.565Z,26.58
2023-01-29T14:20:46.442Z,25.05
2023-01-29T14:23:23.589Z,22.73
2023-01-29T14:25:51.212Z,24.95
2023-01-29T14:28:26.255Z,21.58
2023-01-29T14:30:54.955Z,23.20
2023-01-29T14:33:27.004Z,24.00
2023-01-29T14:35:56.977Z,23.17
2023-01-29T14:38:26.861Z,22.65
2023-01-29T14:41:03.361Z,20.88
2023-01-29T14:43:33.707Z,23.27
2023-01-29T14:46:16.067Z,26.05
2023-01-29T14:48:48.443Z,23.40
2023-01-29T14:51:17.736Z,23.10
2023-01-29T14:53:49.570Z,21.23
2023-01-29T14:56:22.556Z,24.75
2023-01-29T14:58:56.076Z,22.70
2023-01-29T15:01:26.994Z,25.42
2023-01-29T15:03:56.801Z,22.85
2023-01-29T15:06:29.596Z,22.85
2023-01-29T15:09:01.877Z,22.05
2023-01-29T15:11:35.524Z,23.25
2023-01-29T15:14:23.993Z,21.92
2023-01-29T15:16:58.689Z,21.80
2023-01-29T15:19:32.564Z,21.35
2023-01-29T15:22:15.083Z,22.13
2023-01-29T15:24:46.859Z,22.67
2023-01-29T15:27:15.780Z,20.67
2023-01-29T15:29:45.304Z,19.98
2023-01-29T15:32:16.472Z,22.08
2023-01-29T15:34:50.642Z,22.45
2023-01-29T15:37:34.336Z,18.95
2023-01-29T15:40:15.589Z,21.30
2023-01-29T15:42:44.701Z,20.60
2023-01-29T15:45:22.353Z,20.63
2023-01-29T15:47:51.358Z,19.88
2023-01-29T15:50:18.908Z,19.83
2023-01-29T15:52:49.668Z,21.63
2023-01-29T15:55:17.655Z,21.60
2023-01-29T15:57:45.951Z,22.23
2023-01-29T16:00:21.868Z,18.02
2023-01-29T16:02:49.676Z,22.80
2023-01-29T16:05:23.320Z,20.10
2023-01-29T16:07:52.771Z,21.90
2023-01-29T16:10:21.753Z,22.95
2023-01-29T16:12:51.501Z,24.45
2023-01-29T16:15:22.786Z,24.65
2023-01-29T16:17:53.060Z,22.60
2023-01-29T16:20:28.183Z,24.92
2023-01-29T16:23:02.545Z,26.10
2023-01-29T16:25:34.967Z,25.52
2023-01-29T16:28:04.695Z,26.30
2023-01-29T16:30:32.421Z,24.73
2023-01-29T16:35:27.359Z,25.48
2023-01-29T16:37:58.124Z,25.67
2023-01-29T16:40:33.397Z,26.45
2023-01-29T16:43:42.100Z,26.02
2023-01-29T16:46:21.321Z,23.35
2023-01-29T16:48:49.248Z,27.30
2023-01-29T16:54:02.355Z,22.30
2023-01-29T16:56:40.934Z,26.95
2023-01-29T16:59:18.094Z,26.20
2023-01-29T17:01:46.074Z,25.60
2023-01-29T17:04:15.753Z,27.00
2023-01-29T17:06:47.172Z,26.13
2023-01-29T17:09:21.291Z,25.85
2023-01-29T17:11:56.020Z,27.45
2023-01-29T17:14:26.808Z,25.98
2023-01-29T17:16:56.443Z,26.88
2023-01-29T17:19:26.802Z,27.52
2023-01-29T17:21:54.419Z,27.27
2023-01-29T17:24:25.175Z,26.75
2023-01-29T17:26:54.222Z,28.40
2023-01-29T17:29:26.925Z,26.52
2023-01-29T17:31:56.123Z,25.20
2023-01-29T17:34:25.064Z,24.60
2023-01-29T17:36:57.879Z,24.88
2023-01-29T17:39:33.063Z,25.42
2023-01-29T17:42:02.315Z,27.42
2023-01-29T17:44:32.887Z,25.33
2023-01-29T17:47:00.735Z,26.67
2023-01-29T17:49:28.914Z,26.55
2023-01-29T17:51:57.199Z,26.70
2023-01-29T17:54:25.693Z,26.40
2023-01-29T17:56:53.679Z,25.42
2023-01-29T18:01:50.604Z,25.02
2023-01-29T18:04:18.723Z,27.33
2023-01-29T18:06:47.827Z,27.00
2023-01-29T18:09:15.844Z,26.60
2023-01-29T18:11:43.611Z,26.60
2023-01-29T18:14:13.899Z,24.70
2023-01-29T18:16:43.952Z,24.48
2023-01-29T18:19:15.808Z,23.65
2023-01-29T18:21:43.303Z,24.35
2023-01-29T18:24:11.163Z,25.08
2023-01-29T18:29:08.856Z,23.73
2023-01-29T18:31:36.467Z,26.00
2023-01-29T18:34:03.923Z,26.15
2023-01-29T18:36:32.992Z,26.83
2023-01-29T18:39:00.812Z,24.00
2023-01-29T18:41:28.299Z,25.98
2023-01-29T18:43:55.890Z,24.33
2023-01-29T18:46:24.697Z,24.85
2023-01-29T18:48:52.284Z,27.02
2023-01-29T18:51:19.787Z,24.58
2023-01-29T18:53:54.935Z,23.75
2023-01-29T18:56:22.469Z,24.48
2023-01-29T18:58:55.771Z,23.45
2023-01-29T19:01:23.794Z,21.13
2023-01-29T19:06:19.385Z,24.58
2023-01-29T19:08:47.480Z,20.40
2023-01-29T19:11:18.375Z,26.88
2023-01-29T19:13:49.928Z,27.17
2023-01-29T19:16:17.719Z,27.50
2023-01-29T19:18:46.131Z,25.63
2023-01-29T19:21:14.680Z,26.65
2023-01-29T19:23:42.938Z,23.27
2023-01-29T19:26:11.022Z,26.08
2023-01-29T19:28:40.186Z,25.80
2023-01-29T19:31:09.142Z,24.20
2023-01-29T19:33:36.735Z,25.85
2023-01-29T19:36:04.265Z,26.27
2023-01-29T19:38:33.632Z,25.38
2023-01-29T19:41:01.246Z,25.92
2023-01-29T19:43:30.307Z,26.92
2023-01-29T19:45:59.408Z,25.13
2023-01-29T19:48:26.900Z,24.77
2023-01-29T19:50:54.394Z,27.15
2023-01-29T19:53:22.760Z,24.65
2023-01-29T19:55:57.741Z,25.30
2023-01-29T19:58:26.226Z,24.90
2023-01-29T20:00:58.152Z,25.63
2023-01-29T20:03:27.713Z,25.10
2023-01-29T20:06:01.893Z,23.95
2023-01-29T20:08:29.517Z,25.85
2023-01-29T20:10:56.941Z,23.27
2023-01-29T20:13:24.635Z,18.70
2023-01-29T20:15:55.423Z,23.80
2023-01-29T20:18:22.954Z,20.63
2023-01-29T20:20:53.017Z,22.05
2023-01-29T20:23:36.754Z,23.92
2023-01-29T20:26:14.850Z,21.33
2023-01-29T20:28:43.035Z,24.50
2023-01-29T20:31:11.183Z,20.90
2023-01-29T20:33:39.632Z,19.27
2023-01-29T20:36:10.242Z,20.50
2023-01-29T20:38:37.901Z,20.35
2023-01-29T20:41:07.643Z,21.85
2023-01-29T20:43:35.448Z,19.25
2023-01-29T20:46:04.890Z,22.70
2023-01-29T20:48:33.053Z,19.85
2023-01-29T20:51:04.492Z,17.05
2023-01-29T20:53:33.521Z,20.90
2023-01-29T20:56:04.719Z,19.52
2023-01-29T20:58:33.040Z,18.50
2023-01-29T21:01:00.655Z,13.50
2023-01-29T21:03:31.132Z,19.77
2023-01-29T21:05:59.752Z,20.13
2023-01-29T21:08:27.374Z,19.80
2023-01-29T21:10:56.156Z,20.48
2023-01-29T21:13:26.179Z,20.20
2023-01-29T21:15:54.062Z,23.90
2023-01-29T21:20:50.195Z,20.73
2023-01-29T21:23:19.092Z,21.20
2023-01-29T21:25:46.657Z,21.52
2023-01-29T21:28:18.139Z,21.98
2023-01-29T21:30:46.383Z,14.60
2023-01-29T21:33:13.990Z,23.00
2023-01-29T21:35:41.634Z,21.30
2023-01-29T21:38:09.240Z,23.55
2023-01-29T21:40:36.701Z,23.05
2023-01-29T21:43:16.177Z,22.35
2023-01-29T21:45:46.893Z,25.10
2023-01-29T21:48:14.437Z,24.88
2023-01-29T21:50:48.513Z,24.73
2023-01-29T21:53:15.960Z,23.42
2023-01-29T21:55:44.177Z,16.75
2023-01-29T21:58:14.093Z,22.88
2023-01-29T22:00:41.888Z,26.13
2023-01-29T22:03:10.648Z,26.52
2023-01-29T22:05:39.381Z,24.25
2023-01-29T22:08:06.875Z,23.85
2023-01-29T22:10:36.386Z,23.40
2023-01-29T22:13:04.025Z,25.70
2023-01-29T22:15:31.619Z,24.30
2023-01-29T22:17:59.436Z,19.02
2023-01-29T22:20:31.038Z,24.77
2023-01-29T22:22:59.387Z,22.80
2023-01-29T22:25:27.073Z,25.45
2023-01-29T22:27:54.494Z,24.27
2023-01-29T22:30:23.287Z,25.48
2023-01-29T22:32:51.168Z,25.92
2023-01-29T22:35:18.628Z,25.73
2023-01-29T22:37:47.395Z,24.08
2023-01-29T22:40:14.945Z,28.05
2023-01-29T22:42:42.609Z,28.17
2023-01-29T22:45:10.380Z,26.75
2023-01-29T22:50:05.689Z,27.55
2023-01-29T22:52:38.356Z,27.27
2023-01-29T22:55:09.173Z,27.77
2023-01-29T22:57:37.140Z,24.13
2023-01-29T23:02:32.905Z,26.70
2023-01-29T23:05:00.348Z,27.30
2023-01-29T23:07:27.754Z,27.58
2023-01-29T23:09:55.191Z,29.17
2023-01-29T23:12:23.991Z,26.40
2023-01-29T23:14:51.421Z,25.55
2023-01-29T23:17:18.883Z,27.08
2023-01-29T23:19:46.297Z,26.52
2023-01-29T23:22:13.753Z,27.30
2023-01-29T23:24:41.168Z,22.10
2023-01-29T23:27:14.512Z,28.17
2023-01-29T23:29:43.354Z,26.52
2023-01-29T23:32:10.928Z,27.17
2023-01-29T23:34:38.384Z,25.40
2023-01-29T23:37:05.977Z,21.52
2023-01-29T23:39:33.501Z,23.48
2023-01-29T23:42:01.185Z,26.40
2023-01-29T23:44:28.609Z,23.90
2023-01-29T23:46:57.399Z,27.52
2023-01-29T23:49:24.828Z,27.73
2023-01-29T23:51:52.201Z,25.63
2023-01-29T23:54:19.556Z,28.77
2023-01-29T23:56:46.908Z,25.45
2023-01-29T23:59:14.655Z,27.77
